sensor_id;sensor_type;location;lat;lon;timestamp;P1;durP1;ratioP1;P2;durP2;ratioP2
2858;SDS011;1437;53.250;10.406;2022-08-19T00:01:35;11.73;;;8.00;;
2858;SDS011;1437;53.250;10.406;2022-08-19T00:04:03;12.33;;;9.40;;
2858;SDS011;1437;53.250;10.406;2022-08-19T00:06:31;11.00;;;8.60;;
2858;SDS011;1437;53.250;10.406;2022-08-19T00:08:59;15.20;;;10.63;;
2858;SDS011;1437;53.250;10.406;2022-08-19T00:11:26;7.97;;;7.17;;
2858;SDS011;1437;53.250;10.406;2022-08-19T00:13:54;9.70;;;8.10;;
2858;SDS011;1437;53.250;10.406;2022-08-19T00:16:22;10.37;;;8.47;;
2858;SDS011;1437;53.250;10.406;2022-08-19T00:18:49;13.27;;;7.20;;
2858;SDS011;1437;53.250;10.406;2022-08-19T00:21:16;12.43;;;8.67;;
2858;SDS011;1437;53.250;10.406;2022-08-19T00:23:43;9.90;;;8.90;;
2858;SDS011;1437;53.250;10.406;2022-08-19T00:26:12;9.60;;;7.70;;
2858;SDS011;1437;53.250;10.406;2022-08-19T00:28:39;11.23;;;8.20;;
2858;SDS011;1437;53.250;10.406;2022-08-19T00:31:06;17.53;;;6.73;;
2858;SDS011;1437;53.250;10.406;2022-08-19T00:33:34;11.10;;;7.20;;
2858;SDS011;1437;53.250;10.406;2022-08-19T00:36:02;9.53;;;7.10;;
2858;SDS011;1437;53.250;10.406;2022-08-19T00:38:30;9.57;;;7.00;;
2858;SDS011;1437;53.250;10.406;2022-08-19T00:40:57;9.50;;;7.13;;
2858;SDS011;1437;53.250;10.406;2022-08-19T00:43:26;9.90;;;7.50;;
2858;SDS011;1437;53.250;10.406;2022-08-19T00:45:53;12.20;;;7.60;;
2858;SDS011;1437;53.250;10.406;2022-08-19T00:48:20;10.30;;;7.20;;
2858;SDS011;1437;53.250;10.406;2022-08-19T00:50:48;10.43;;;6.63;;
2858;SDS011;1437;53.250;10.406;2022-08-19T00:53:20;10.03;;;7.53;;
2858;SDS011;1437;53.250;10.406;2022-08-19T00:55:47;8.27;;;6.73;;
2858;SDS011;1437;53.250;10.406;2022-08-19T00:58:15;10.47;;;7.33;;
2858;SDS011;1437;53.250;10.406;2022-08-19T01:00:44;9.03;;;7.57;;
2858;SDS011;1437;53.250;10.406;2022-08-19T01:03:12;10.30;;;7.60;;
2858;SDS011;1437;53.250;10.406;2022-08-19T01:05:39;10.23;;;7.70;;
2858;SDS011;1437;53.250;10.406;2022-08-19T01:08:07;9.93;;;7.03;;
2858;SDS011;1437;53.250;10.406;2022-08-19T01:10:36;10.77;;;7.07;;
2858;SDS011;1437;53.250;10.406;2022-08-19T01:13:04;12.47;;;7.90;;
2858;SDS011;1437;53.250;10.406;2022-08-19T01:15:32;12.40;;;6.83;;
2858;SDS011;1437;53.250;10.406;2022-08-19T01:18:04;9.87;;;6.90;;
2858;SDS011;1437;53.250;10.406;2022-08-19T01:20:33;15.57;;;8.30;;
2858;SDS011;1437;53.250;10.406;2022-08-19T01:23:01;11.70;;;7.50;;
2858;SDS011;1437;53.250;10.406;2022-08-19T01:25:29;9.70;;;7.73;;
2858;SDS011;1437;53.250;10.406;2022-08-19T01:27:57;8.07;;;7.13;;
2858;SDS011;1437;53.250;10.406;2022-08-19T01:30:26;11.70;;;8.00;;
2858;SDS011;1437;53.250;10.406;2022-08-19T01:32:54;10.47;;;8.37;;
2858;SDS011;1437;53.250;10.406;2022-08-19T01:35:22;10.73;;;7.80;;
2858;SDS011;1437;53.250;10.406;2022-08-19T01:37:51;9.73;;;6.73;;
2858;SDS011;1437;53.250;10.406;2022-08-19T01:40:21;9.90;;;7.90;;
2858;SDS011;1437;53.250;10.406;2022-08-19T01:42:49;10.77;;;8.20;;
2858;SDS011;1437;53.250;10.406;2022-08-19T01:45:17;9.10;;;7.77;;
2858;SDS011;1437;53.250;10.406;2022-08-19T01:47:44;11.63;;;8.00;;
2858;SDS011;1437;53.250;10.406;2022-08-19T01:50:11;12.40;;;7.80;;
2858;SDS011;1437;53.250;10.406;2022-08-19T01:52:39;12.70;;;7.57;;
2858;SDS011;1437;53.250;10.406;2022-08-19T01:55:08;10.17;;;7.80;;
2858;SDS011;1437;53.250;10.406;2022-08-19T01:57:37;11.97;;;7.80;;
2858;SDS011;1437;53.250;10.406;2022-08-19T02:00:07;8.07;;;6.77;;
2858;SDS011;1437;53.250;10.406;2022-08-19T02:02:38;8.77;;;7.33;;
2858;SDS011;1437;53.250;10.406;2022-08-19T02:05:05;12.57;;;8.63;;
2858;SDS011;1437;53.250;10.406;2022-08-19T02:07:33;9.70;;;7.80;;
2858;SDS011;1437;53.250;10.406;2022-08-19T02:10:01;7.97;;;6.90;;
2858;SDS011;1437;53.250;10.406;2022-08-19T02:12:29;7.60;;;6.40;;
2858;SDS011;1437;53.250;10.406;2022-08-19T02:14:57;10.37;;;9.27;;
2858;SDS011;1437;53.250;10.406;2022-08-19T02:17:25;8.30;;;7.07;;
2858;SDS011;1437;53.250;10.406;2022-08-19T02:19:53;8.93;;;7.90;;
2858;SDS011;1437;53.250;10.406;2022-08-19T02:22:20;8.17;;;6.37;;
2858;SDS011;1437;53.250;10.406;2022-08-19T02:24:48;10.23;;;9.20;;
2858;SDS011;1437;53.250;10.406;2022-08-19T02:27:15;10.17;;;7.43;;
2858;SDS011;1437;53.250;10.406;2022-08-19T02:29:42;9.63;;;7.43;;
2858;SDS011;1437;53.250;10.406;2022-08-19T02:32:10;11.50;;;7.67;;
2858;SDS011;1437;53.250;10.406;2022-08-19T02:34:37;9.83;;;7.37;;
2858;SDS011;1437;53.250;10.406;2022-08-19T02:37:04;9.50;;;7.57;;
2858;SDS011;1437;53.250;10.406;2022-08-19T02:39:51;9.33;;;6.83;;
2858;SDS011;1437;53.250;10.406;2022-08-19T02:42:18;8.37;;;7.43;;
2858;SDS011;1437;53.250;10.406;2022-08-19T02:44:45;11.40;;;6.90;;
2858;SDS011;1437;53.250;10.406;2022-08-19T02:47:13;7.33;;;6.53;;
2858;SDS011;1437;53.250;10.406;2022-08-19T02:49:40;11.00;;;8.10;;
2858;SDS011;1437;53.250;10.406;2022-08-19T02:52:07;9.97;;;6.40;;
2858;SDS011;1437;53.250;10.406;2022-08-19T02:54:36;9.10;;;6.50;;
2858;SDS011;1437;53.250;10.406;2022-08-19T02:57:04;8.40;;;7.00;;
2858;SDS011;1437;53.250;10.406;2022-08-19T02:59:34;8.37;;;6.73;;
2858;SDS011;1437;53.250;10.406;2022-08-19T03:02:02;7.83;;;6.13;;
2858;SDS011;1437;53.250;10.406;2022-08-19T03:04:30;9.77;;;7.53;;
2858;SDS011;1437;53.250;10.406;2022-08-19T03:06:57;13.27;;;8.50;;
2858;SDS011;1437;53.250;10.406;2022-08-19T03:09:24;12.20;;;7.80;;
2858;SDS011;1437;53.250;10.406;2022-08-19T03:11:56;14.00;;;10.00;;
2858;SDS011;1437;53.250;10.406;2022-08-19T03:14:24;12.67;;;8.30;;
2858;SDS011;1437;53.250;10.406;2022-08-19T03:16:51;17.23;;;9.67;;
2858;SDS011;1437;53.250;10.406;2022-08-19T03:19:19;19.03;;;10.77;;
2858;SDS011;1437;53.250;10.406;2022-08-19T03:21:48;16.10;;;10.27;;
2858;SDS011;1437;53.250;10.406;2022-08-19T03:24:15;13.90;;;10.77;;
2858;SDS011;1437;53.250;10.406;2022-08-19T03:26:44;15.73;;;9.90;;
2858;SDS011;1437;53.250;10.406;2022-08-19T03:29:16;16.47;;;12.27;;
2858;SDS011;1437;53.250;10.406;2022-08-19T03:31:43;15.10;;;11.50;;
2858;SDS011;1437;53.250;10.406;2022-08-19T03:34:11;19.83;;;13.43;;
2858;SDS011;1437;53.250;10.406;2022-08-19T03:36:39;15.63;;;11.30;;
2858;SDS011;1437;53.250;10.406;2022-08-19T03:39:09;19.30;;;12.60;;
2858;SDS011;1437;53.250;10.406;2022-08-19T03:41:37;21.47;;;11.87;;
2858;SDS011;1437;53.250;10.406;2022-08-19T03:44:04;22.27;;;14.10;;
2858;SDS011;1437;53.250;10.406;2022-08-19T03:46:33;16.50;;;12.17;;
2858;SDS011;1437;53.250;10.406;2022-08-19T03:49:03;18.00;;;11.80;;
2858;SDS011;1437;53.250;10.406;2022-08-19T03:51:32;17.50;;;12.70;;
2858;SDS011;1437;53.250;10.406;2022-08-19T03:54:01;22.20;;;14.47;;
2858;SDS011;1437;53.250;10.406;2022-08-19T03:56:29;16.43;;;11.90;;
2858;SDS011;1437;53.250;10.406;2022-08-19T03:58:57;16.40;;;11.60;;
2858;SDS011;1437;53.250;10.406;2022-08-19T04:01:25;18.20;;;12.50;;
2858;SDS011;1437;53.250;10.406;2022-08-19T04:03:53;19.60;;;11.30;;
2858;SDS011;1437;53.250;10.406;2022-08-19T04:06:21;14.20;;;9.83;;
2858;SDS011;1437;53.250;10.406;2022-08-19T04:08:49;14.40;;;10.43;;
2858;SDS011;1437;53.250;10.406;2022-08-19T04:11:21;16.23;;;10.40;;
2858;SDS011;1437;53.250;10.406;2022-08-19T04:13:49;15.93;;;9.87;;
2858;SDS011;1437;53.250;10.406;2022-08-19T04:16:17;13.97;;;9.73;;
2858;SDS011;1437;53.250;10.406;2022-08-19T04:18:45;14.03;;;8.47;;
2858;SDS011;1437;53.250;10.406;2022-08-19T04:21:15;15.30;;;8.80;;
2858;SDS011;1437;53.250;10.406;2022-08-19T04:23:42;14.43;;;9.73;;
2858;SDS011;1437;53.250;10.406;2022-08-19T04:26:12;14.13;;;8.83;;
2858;SDS011;1437;53.250;10.406;2022-08-19T04:28:42;13.30;;;8.73;;
2858;SDS011;1437;53.250;10.406;2022-08-19T04:31:13;11.60;;;8.20;;
2858;SDS011;1437;53.250;10.406;2022-08-19T04:33:40;12.90;;;8.80;;
2858;SDS011;1437;53.250;10.406;2022-08-19T04:36:08;12.90;;;7.90;;
2858;SDS011;1437;53.250;10.406;2022-08-19T04:38:35;12.30;;;8.13;;
2858;SDS011;1437;53.250;10.406;2022-08-19T04:41:02;11.67;;;9.43;;
2858;SDS011;1437;53.250;10.406;2022-08-19T04:43:47;12.67;;;8.60;;
2858;SDS011;1437;53.250;10.406;2022-08-19T04:46:16;11.70;;;8.07;;
2858;SDS011;1437;53.250;10.406;2022-08-19T04:48:45;13.70;;;9.00;;
2858;SDS011;1437;53.250;10.406;2022-08-19T04:51:12;12.47;;;8.90;;
2858;SDS011;1437;53.250;10.406;2022-08-19T04:53:41;14.23;;;8.63;;
2858;SDS011;1437;53.250;10.406;2022-08-19T04:56:09;14.53;;;9.57;;
2858;SDS011;1437;53.250;10.406;2022-08-19T04:58:36;13.30;;;9.90;;
2858;SDS011;1437;53.250;10.406;2022-08-19T05:01:03;16.17;;;10.20;;
2858;SDS011;1437;53.250;10.406;2022-08-19T05:03:32;16.43;;;11.73;;
2858;SDS011;1437;53.250;10.406;2022-08-19T05:06:03;13.70;;;10.10;;
2858;SDS011;1437;53.250;10.406;2022-08-19T05:08:32;15.40;;;9.93;;
2858;SDS011;1437;53.250;10.406;2022-08-19T05:11:00;15.30;;;11.17;;
2858;SDS011;1437;53.250;10.406;2022-08-19T05:13:27;20.30;;;10.23;;
2858;SDS011;1437;53.250;10.406;2022-08-19T05:15:54;14.03;;;9.77;;
2858;SDS011;1437;53.250;10.406;2022-08-19T05:18:22;12.10;;;8.93;;
2858;SDS011;1437;53.250;10.406;2022-08-19T05:21:08;12.13;;;8.03;;
2858;SDS011;1437;53.250;10.406;2022-08-19T05:23:53;16.60;;;10.60;;
2858;SDS011;1437;53.250;10.406;2022-08-19T05:26:20;14.00;;;9.87;;
2858;SDS011;1437;53.250;10.406;2022-08-19T05:28:47;15.10;;;9.90;;
2858;SDS011;1437;53.250;10.406;2022-08-19T05:31:14;14.23;;;9.90;;
2858;SDS011;1437;53.250;10.406;2022-08-19T05:33:41;18.40;;;10.47;;
2858;SDS011;1437;53.250;10.406;2022-08-19T05:36:09;18.00;;;12.00;;
2858;SDS011;1437;53.250;10.406;2022-08-19T05:38:36;20.73;;;10.87;;
2858;SDS011;1437;53.250;10.406;2022-08-19T05:41:07;17.90;;;10.03;;
2858;SDS011;1437;53.250;10.406;2022-08-19T05:43:34;16.53;;;10.27;;
2858;SDS011;1437;53.250;10.406;2022-08-19T05:46:01;18.30;;;10.53;;
2858;SDS011;1437;53.250;10.406;2022-08-19T05:48:31;15.67;;;9.40;;
2858;SDS011;1437;53.250;10.406;2022-08-19T05:51:03;17.40;;;11.10;;
2858;SDS011;1437;53.250;10.406;2022-08-19T05:53:32;15.73;;;9.40;;
2858;SDS011;1437;53.250;10.406;2022-08-19T05:56:03;17.00;;;10.90;;
2858;SDS011;1437;53.250;10.406;2022-08-19T05:58:33;18.13;;;11.03;;
2858;SDS011;1437;53.250;10.406;2022-08-19T06:01:00;21.30;;;11.13;;
2858;SDS011;1437;53.250;10.406;2022-08-19T06:03:30;22.83;;;10.87;;
2858;SDS011;1437;53.250;10.406;2022-08-19T06:05:58;18.13;;;12.13;;
2858;SDS011;1437;53.250;10.406;2022-08-19T06:08:25;18.63;;;13.43;;
2858;SDS011;1437;53.250;10.406;2022-08-19T06:10:53;16.77;;;10.40;;
2858;SDS011;1437;53.250;10.406;2022-08-19T06:13:21;16.13;;;11.33;;
2858;SDS011;1437;53.250;10.406;2022-08-19T06:15:49;14.73;;;10.83;;
2858;SDS011;1437;53.250;10.406;2022-08-19T06:18:18;19.50;;;11.60;;
2858;SDS011;1437;53.250;10.406;2022-08-19T06:20:48;17.23;;;12.13;;
2858;SDS011;1437;53.250;10.406;2022-08-19T06:23:16;18.67;;;12.47;;
2858;SDS011;1437;53.250;10.406;2022-08-19T06:25:44;26.53;;;14.50;;
2858;SDS011;1437;53.250;10.406;2022-08-19T06:28:12;24.10;;;15.30;;
2858;SDS011;1437;53.250;10.406;2022-08-19T06:30:39;25.13;;;15.30;;
2858;SDS011;1437;53.250;10.406;2022-08-19T06:33:07;30.80;;;16.60;;
2858;SDS011;1437;53.250;10.406;2022-08-19T06:35:38;29.27;;;16.03;;
2858;SDS011;1437;53.250;10.406;2022-08-19T06:38:05;28.67;;;16.37;;
2858;SDS011;1437;53.250;10.406;2022-08-19T06:40:32;27.10;;;16.80;;
2858;SDS011;1437;53.250;10.406;2022-08-19T06:43:00;30.63;;;19.30;;
2858;SDS011;1437;53.250;10.406;2022-08-19T06:45:28;31.43;;;21.20;;
2858;SDS011;1437;53.250;10.406;2022-08-19T06:47:56;43.37;;;24.60;;
2858;SDS011;1437;53.250;10.406;2022-08-19T06:50:23;38.40;;;21.60;;
2858;SDS011;1437;53.250;10.406;2022-08-19T06:52:50;36.33;;;21.13;;
2858;SDS011;1437;53.250;10.406;2022-08-19T06:55:18;35.17;;;21.67;;
2858;SDS011;1437;53.250;10.406;2022-08-19T06:57:45;31.87;;;18.10;;
2858;SDS011;1437;53.250;10.406;2022-08-19T07:00:13;32.30;;;19.50;;
2858;SDS011;1437;53.250;10.406;2022-08-19T07:02:41;35.93;;;18.60;;
2858;SDS011;1437;53.250;10.406;2022-08-19T07:05:09;27.73;;;19.67;;
2858;SDS011;1437;53.250;10.406;2022-08-19T07:07:40;31.40;;;19.27;;
2858;SDS011;1437;53.250;10.406;2022-08-19T07:10:08;32.13;;;22.53;;
2858;SDS011;1437;53.250;10.406;2022-08-19T07:12:35;34.10;;;20.43;;
2858;SDS011;1437;53.250;10.406;2022-08-19T07:15:03;34.87;;;20.53;;
2858;SDS011;1437;53.250;10.406;2022-08-19T07:17:30;31.50;;;19.27;;
2858;SDS011;1437;53.250;10.406;2022-08-19T07:19:59;33.00;;;19.07;;
2858;SDS011;1437;53.250;10.406;2022-08-19T07:22:26;31.80;;;20.33;;
2858;SDS011;1437;53.250;10.406;2022-08-19T07:24:54;30.13;;;22.23;;
2858;SDS011;1437;53.250;10.406;2022-08-19T07:27:26;33.57;;;19.13;;
2858;SDS011;1437;53.250;10.406;2022-08-19T07:29:53;31.80;;;20.07;;
2858;SDS011;1437;53.250;10.406;2022-08-19T07:32:21;41.10;;;23.23;;
2858;SDS011;1437;53.250;10.406;2022-08-19T07:34:51;33.93;;;22.47;;
2858;SDS011;1437;53.250;10.406;2022-08-19T07:37:20;37.00;;;23.73;;
2858;SDS011;1437;53.250;10.406;2022-08-19T07:39:48;33.07;;;21.80;;
2858;SDS011;1437;53.250;10.406;2022-08-19T07:42:15;36.90;;;23.30;;
2858;SDS011;1437;53.250;10.406;2022-08-19T07:44:42;43.53;;;23.40;;
2858;SDS011;1437;53.250;10.406;2022-08-19T07:47:12;42.73;;;24.03;;
2858;SDS011;1437;53.250;10.406;2022-08-19T07:49:41;35.63;;;21.20;;
2858;SDS011;1437;53.250;10.406;2022-08-19T07:52:09;43.33;;;24.03;;
2858;SDS011;1437;53.250;10.406;2022-08-19T07:54:37;38.30;;;24.30;;
2858;SDS011;1437;53.250;10.406;2022-08-19T07:57:06;43.83;;;24.47;;
2858;SDS011;1437;53.250;10.406;2022-08-19T07:59:33;44.43;;;24.93;;
2858;SDS011;1437;53.250;10.406;2022-08-19T08:02:01;40.43;;;24.57;;
2858;SDS011;1437;53.250;10.406;2022-08-19T08:04:29;49.40;;;26.30;;
2858;SDS011;1437;53.250;10.406;2022-08-19T08:07:16;47.53;;;26.97;;
2858;SDS011;1437;53.250;10.406;2022-08-19T08:10:03;41.23;;;22.90;;
2858;SDS011;1437;53.250;10.406;2022-08-19T08:12:34;36.23;;;23.67;;
2858;SDS011;1437;53.250;10.406;2022-08-19T08:15:07;44.97;;;28.70;;
2858;SDS011;1437;53.250;10.406;2022-08-19T08:17:35;40.63;;;24.27;;
2858;SDS011;1437;53.250;10.406;2022-08-19T08:20:04;51.57;;;26.63;;
2858;SDS011;1437;53.250;10.406;2022-08-19T08:22:43;52.73;;;28.10;;
2858;SDS011;1437;53.250;10.406;2022-08-19T08:25:33;49.57;;;26.30;;
2858;SDS011;1437;53.250;10.406;2022-08-19T08:28:01;37.70;;;23.87;;
2858;SDS011;1437;53.250;10.406;2022-08-19T08:30:30;49.77;;;26.97;;
2858;SDS011;1437;53.250;10.406;2022-08-19T08:33:00;49.73;;;26.27;;
2858;SDS011;1437;53.250;10.406;2022-08-19T08:35:28;50.77;;;25.87;;
2858;SDS011;1437;53.250;10.406;2022-08-19T08:37:56;45.70;;;26.93;;
2858;SDS011;1437;53.250;10.406;2022-08-19T08:40:26;49.07;;;26.70;;
2858;SDS011;1437;53.250;10.406;2022-08-19T08:42:59;48.37;;;26.27;;
2858;SDS011;1437;53.250;10.406;2022-08-19T08:45:30;49.23;;;26.23;;
2858;SDS011;1437;53.250;10.406;2022-08-19T08:47:58;59.67;;;25.80;;
2858;SDS011;1437;53.250;10.406;2022-08-19T08:50:29;38.50;;;23.97;;
2858;SDS011;1437;53.250;10.406;2022-08-19T08:53:02;51.93;;;25.97;;
2858;SDS011;1437;53.250;10.406;2022-08-19T08:55:31;39.73;;;24.77;;
2858;SDS011;1437;53.250;10.406;2022-08-19T08:58:07;50.60;;;24.20;;
2858;SDS011;1437;53.250;10.406;2022-08-19T09:00:43;39.63;;;24.13;;
2858;SDS011;1437;53.250;10.406;2022-08-19T09:03:16;41.37;;;26.17;;
2858;SDS011;1437;53.250;10.406;2022-08-19T09:05:52;37.33;;;21.00;;
2858;SDS011;1437;53.250;10.406;2022-08-19T09:08:25;43.20;;;23.63;;
2858;SDS011;1437;53.250;10.406;2022-08-19T09:10:55;34.90;;;22.30;;
2858;SDS011;1437;53.250;10.406;2022-08-19T09:13:28;43.43;;;23.20;;
2858;SDS011;1437;53.250;10.406;2022-08-19T09:16:10;32.23;;;18.30;;
2858;SDS011;1437;53.250;10.406;2022-08-19T09:18:40;38.17;;;22.50;;
2858;SDS011;1437;53.250;10.406;2022-08-19T09:21:09;46.70;;;23.67;;
2858;SDS011;1437;53.250;10.406;2022-08-19T09:23:40;35.43;;;21.73;;
2858;SDS011;1437;53.250;10.406;2022-08-19T09:26:09;35.93;;;18.10;;
2858;SDS011;1437;53.250;10.406;2022-08-19T09:28:40;37.70;;;20.37;;
2858;SDS011;1437;53.250;10.406;2022-08-19T09:31:09;39.53;;;21.00;;
2858;SDS011;1437;53.250;10.406;2022-08-19T09:33:36;35.40;;;20.40;;
2858;SDS011;1437;53.250;10.406;2022-08-19T09:36:04;35.10;;;20.20;;
2858;SDS011;1437;53.250;10.406;2022-08-19T09:38:32;38.30;;;20.00;;
2858;SDS011;1437;53.250;10.406;2022-08-19T09:41:07;27.50;;;17.57;;
2858;SDS011;1437;53.250;10.406;2022-08-19T09:43:38;28.33;;;17.67;;
2858;SDS011;1437;53.250;10.406;2022-08-19T09:46:07;30.03;;;19.07;;
2858;SDS011;1437;53.250;10.406;2022-08-19T09:48:35;32.17;;;19.10;;
2858;SDS011;1437;53.250;10.406;2022-08-19T09:51:03;30.37;;;16.40;;
2858;SDS011;1437;53.250;10.406;2022-08-19T09:53:30;31.00;;;18.30;;
2858;SDS011;1437;53.250;10.406;2022-08-19T09:55:58;33.30;;;18.83;;
2858;SDS011;1437;53.250;10.406;2022-08-19T09:58:25;28.13;;;16.93;;
2858;SDS011;1437;53.250;10.406;2022-08-19T10:00:57;33.23;;;20.20;;
2858;SDS011;1437;53.250;10.406;2022-08-19T10:03:28;35.23;;;19.57;;
2858;SDS011;1437;53.250;10.406;2022-08-19T10:05:57;32.20;;;19.47;;
2858;SDS011;1437;53.250;10.406;2022-08-19T10:08:29;33.47;;;17.97;;
2858;SDS011;1437;53.250;10.406;2022-08-19T10:10:58;38.10;;;20.47;;
2858;SDS011;1437;53.250;10.406;2022-08-19T10:13:27;37.30;;;20.27;;
2858;SDS011;1437;53.250;10.406;2022-08-19T10:16:02;33.23;;;19.10;;
2858;SDS011;1437;53.250;10.406;2022-08-19T10:18:33;40.63;;;19.60;;
2858;SDS011;1437;53.250;10.406;2022-08-19T10:21:04;28.87;;;18.33;;
2858;SDS011;1437;53.250;10.406;2022-08-19T10:23:34;31.43;;;18.50;;
2858;SDS011;1437;53.250;10.406;2022-08-19T10:26:03;38.20;;;18.83;;
2858;SDS011;1437;53.250;10.406;2022-08-19T10:28:35;32.37;;;19.23;;
2858;SDS011;1437;53.250;10.406;2022-08-19T10:31:04;35.57;;;18.70;;
2858;SDS011;1437;53.250;10.406;2022-08-19T10:33:33;33.37;;;18.73;;
2858;SDS011;1437;53.250;10.406;2022-08-19T10:36:05;29.27;;;18.33;;
2858;SDS011;1437;53.250;10.406;2022-08-19T10:38:32;40.27;;;21.90;;
2858;SDS011;1437;53.250;10.406;2022-08-19T10:41:06;36.10;;;20.97;;
2858;SDS011;1437;53.250;10.406;2022-08-19T10:43:34;35.93;;;22.17;;
2858;SDS011;1437;53.250;10.406;2022-08-19T10:46:04;37.60;;;21.60;;
2858;SDS011;1437;53.250;10.406;2022-08-19T10:48:31;33.80;;;18.23;;
2858;SDS011;1437;53.250;10.406;2022-08-19T10:51:00;41.57;;;21.20;;
2858;SDS011;1437;53.250;10.406;2022-08-19T10:53:49;32.27;;;21.30;;
2858;SDS011;1437;53.250;10.406;2022-08-19T10:56:19;36.53;;;21.77;;
2858;SDS011;1437;53.250;10.406;2022-08-19T10:59:04;43.67;;;23.60;;
2858;SDS011;1437;53.250;10.406;2022-08-19T11:01:32;33.73;;;19.93;;
2858;SDS011;1437;53.250;10.406;2022-08-19T11:04:00;39.83;;;22.77;;
2858;SDS011;1437;53.250;10.406;2022-08-19T11:06:31;43.47;;;23.27;;
2858;SDS011;1437;53.250;10.406;2022-08-19T11:08:58;35.77;;;22.83;;
2858;SDS011;1437;53.250;10.406;2022-08-19T11:11:31;35.50;;;21.70;;
2858;SDS011;1437;53.250;10.406;2022-08-19T11:14:01;43.30;;;24.43;;
2858;SDS011;1437;53.250;10.406;2022-08-19T11:16:30;34.97;;;21.33;;
2858;SDS011;1437;53.250;10.406;2022-08-19T11:19:01;39.70;;;24.53;;
2858;SDS011;1437;53.250;10.406;2022-08-19T11:21:37;39.10;;;23.20;;
2858;SDS011;1437;53.250;10.406;2022-08-19T11:24:14;38.77;;;23.00;;
2858;SDS011;1437;53.250;10.406;2022-08-19T11:26:44;37.03;;;25.03;;
2858;SDS011;1437;53.250;10.406;2022-08-19T11:29:14;33.67;;;22.00;;
2858;SDS011;1437;53.250;10.406;2022-08-19T11:31:43;44.10;;;25.67;;
2858;SDS011;1437;53.250;10.406;2022-08-19T11:34:15;34.80;;;22.10;;
2858;SDS011;1437;53.250;10.406;2022-08-19T11:36:50;34.03;;;22.00;;
2858;SDS011;1437;53.250;10.406;2022-08-19T11:39:22;36.37;;;19.57;;
2858;SDS011;1437;53.250;10.406;2022-08-19T11:41:57;33.30;;;21.90;;
2858;SDS011;1437;53.250;10.406;2022-08-19T11:44:25;40.27;;;21.77;;
2858;SDS011;1437;53.250;10.406;2022-08-19T11:46:56;37.93;;;24.50;;
2858;SDS011;1437;53.250;10.406;2022-08-19T11:49:26;40.67;;;22.80;;
2858;SDS011;1437;53.250;10.406;2022-08-19T11:51:54;37.67;;;24.10;;
2858;SDS011;1437;53.250;10.406;2022-08-19T11:54:22;41.47;;;24.67;;
2858;SDS011;1437;53.250;10.406;2022-08-19T11:56:54;40.20;;;27.10;;
2858;SDS011;1437;53.250;10.406;2022-08-19T11:59:21;44.67;;;26.70;;
2858;SDS011;1437;53.250;10.406;2022-08-19T12:01:52;40.33;;;25.43;;
2858;SDS011;1437;53.250;10.406;2022-08-19T12:04:21;39.93;;;24.30;;
2858;SDS011;1437;53.250;10.406;2022-08-19T12:06:48;40.97;;;25.43;;
2858;SDS011;1437;53.250;10.406;2022-08-19T12:09:23;39.87;;;27.57;;
2858;SDS011;1437;53.250;10.406;2022-08-19T12:11:53;39.73;;;25.97;;
2858;SDS011;1437;53.250;10.406;2022-08-19T12:15:02;42.97;;;25.27;;
2858;SDS011;1437;53.250;10.406;2022-08-19T12:17:43;38.40;;;25.33;;
2858;SDS011;1437;53.250;10.406;2022-08-19T12:20:11;37.57;;;25.80;;
2858;SDS011;1437;53.250;10.406;2022-08-19T12:22:44;37.23;;;24.87;;
2858;SDS011;1437;53.250;10.406;2022-08-19T12:25:12;39.43;;;25.93;;
2858;SDS011;1437;53.250;10.406;2022-08-19T12:27:46;33.07;;;24.87;;
2858;SDS011;1437;53.250;10.406;2022-08-19T12:30:15;32.67;;;25.37;;
2858;SDS011;1437;53.250;10.406;2022-08-19T12:32:46;32.63;;;26.40;;
2858;SDS011;1437;53.250;10.406;2022-08-19T12:35:20;35.47;;;25.73;;
2858;SDS011;1437;53.250;10.406;2022-08-19T12:37:57;32.70;;;25.90;;
2858;SDS011;1437;53.250;10.406;2022-08-19T12:40:25;40.40;;;26.73;;
2858;SDS011;1437;53.250;10.406;2022-08-19T12:42:53;32.87;;;26.40;;
2858;SDS011;1437;53.250;10.406;2022-08-19T12:45:22;32.70;;;26.17;;
2858;SDS011;1437;53.250;10.406;2022-08-19T12:47:50;34.00;;;26.83;;
2858;SDS011;1437;53.250;10.406;2022-08-19T12:50:34;37.30;;;26.60;;
2858;SDS011;1437;53.250;10.406;2022-08-19T12:53:02;36.57;;;26.27;;
2858;SDS011;1437;53.250;10.406;2022-08-19T12:55:35;37.23;;;26.70;;
2858;SDS011;1437;53.250;10.406;2022-08-19T12:58:03;34.80;;;26.10;;
2858;SDS011;1437;53.250;10.406;2022-08-19T13:00:30;39.47;;;28.37;;
2858;SDS011;1437;53.250;10.406;2022-08-19T13:02:59;37.63;;;26.43;;
2858;SDS011;1437;53.250;10.406;2022-08-19T13:05:29;37.80;;;24.13;;
2858;SDS011;1437;53.250;10.406;2022-08-19T13:08:00;38.87;;;25.67;;
2858;SDS011;1437;53.250;10.406;2022-08-19T13:10:28;36.90;;;25.20;;
2858;SDS011;1437;53.250;10.406;2022-08-19T13:13:00;36.43;;;22.77;;
2858;SDS011;1437;53.250;10.406;2022-08-19T13:16:06;29.60;;;22.80;;
2858;SDS011;1437;53.250;10.406;2022-08-19T13:19:00;30.30;;;22.67;;
2858;SDS011;1437;53.250;10.406;2022-08-19T13:21:41;28.67;;;24.10;;
2858;SDS011;1437;53.250;10.406;2022-08-19T13:24:08;31.10;;;23.80;;
2858;SDS011;1437;53.250;10.406;2022-08-19T13:26:38;32.00;;;24.77;;
2858;SDS011;1437;53.250;10.406;2022-08-19T13:32:16;26.60;;;22.10;;
2858;SDS011;1437;53.250;10.406;2022-08-19T13:35:01;33.97;;;23.17;;
2858;SDS011;1437;53.250;10.406;2022-08-19T13:37:31;32.07;;;23.90;;
2858;SDS011;1437;53.250;10.406;2022-08-19T13:40:08;29.53;;;21.70;;
2858;SDS011;1437;53.250;10.406;2022-08-19T13:42:41;30.73;;;23.10;;
2858;SDS011;1437;53.250;10.406;2022-08-19T13:45:15;25.83;;;19.47;;
2858;SDS011;1437;53.250;10.406;2022-08-19T13:47:48;32.40;;;25.70;;
2858;SDS011;1437;53.250;10.406;2022-08-19T13:50:19;26.10;;;21.73;;
2858;SDS011;1437;53.250;10.406;2022-08-19T13:52:48;23.47;;;20.07;;
2858;SDS011;1437;53.250;10.406;2022-08-19T13:55:17;29.23;;;22.00;;
2858;SDS011;1437;53.250;10.406;2022-08-19T13:57:47;25.73;;;21.03;;
2858;SDS011;1437;53.250;10.406;2022-08-19T14:00:20;32.03;;;22.27;;
2858;SDS011;1437;53.250;10.406;2022-08-19T14:02:49;29.67;;;20.73;;
2858;SDS011;1437;53.250;10.406;2022-08-19T14:05:17;20.90;;;18.47;;
2858;SDS011;1437;53.250;10.406;2022-08-19T14:07:44;26.90;;;23.23;;
2858;SDS011;1437;53.250;10.406;2022-08-19T14:10:12;23.00;;;19.17;;
2858;SDS011;1437;53.250;10.406;2022-08-19T14:12:40;26.77;;;20.00;;
2858;SDS011;1437;53.250;10.406;2022-08-19T14:15:25;23.80;;;19.77;;
2858;SDS011;1437;53.250;10.406;2022-08-19T14:17:59;27.93;;;19.87;;
2858;SDS011;1437;53.250;10.406;2022-08-19T14:20:26;26.57;;;18.20;;
2858;SDS011;1437;53.250;10.406;2022-08-19T14:22:56;24.80;;;19.87;;
2858;SDS011;1437;53.250;10.406;2022-08-19T14:25:25;24.60;;;19.83;;
2858;SDS011;1437;53.250;10.406;2022-08-19T14:27:53;24.20;;;19.50;;
2858;SDS011;1437;53.250;10.406;2022-08-19T14:30:22;25.10;;;20.03;;
2858;SDS011;1437;53.250;10.406;2022-08-19T14:32:52;24.50;;;19.60;;
2858;SDS011;1437;53.250;10.406;2022-08-19T14:35:20;24.23;;;18.17;;
2858;SDS011;1437;53.250;10.406;2022-08-19T14:37:49;22.30;;;18.30;;
2858;SDS011;1437;53.250;10.406;2022-08-19T14:40:23;21.77;;;17.33;;
2858;SDS011;1437;53.250;10.406;2022-08-19T14:42:51;21.40;;;16.87;;
2858;SDS011;1437;53.250;10.406;2022-08-19T14:48:14;21.27;;;17.57;;
2858;SDS011;1437;53.250;10.406;2022-08-19T14:50:45;24.33;;;18.43;;
2858;SDS011;1437;53.250;10.406;2022-08-19T14:53:15;21.90;;;17.93;;
2858;SDS011;1437;53.250;10.406;2022-08-19T14:55:43;19.37;;;17.27;;
2858;SDS011;1437;53.250;10.406;2022-08-19T14:58:10;26.87;;;17.57;;
2858;SDS011;1437;53.250;10.406;2022-08-19T15:00:44;20.27;;;18.17;;
2858;SDS011;1437;53.250;10.406;2022-08-19T15:03:13;22.70;;;20.17;;